Time;durP1;ratioP1;P1;durP2;ratioP2;P2;SDS_P1;SDS_P2;PMS_P1;PMS_P2;Temp;Humidity;BMP_temperature;BMP_pressure;BME280_temperature;BME280_humidity;BME280_pressure;Samples;Min_cycle;Max_cycle;Signal;HPM_P1;HPM_P2
2022/08/10 00:01:26;;;;;;;0.00;0.00;;;21.70;64.40;;;;;;4978282;28;20706;-80
2022/08/10 00:03:51;;;;;;;0.00;0.00;;;21.70;64.50;;;;;;4987949;28;20093;-79
2022/08/10 00:06:17;;;;;;;0.00;0.00;;;21.60;64.90;;;;;;4975154;28;20081;-80
2022/08/10 00:08:43;;;;;;;0.00;0.00;;;21.60;64.70;;;;;;4978485;28;20213;-80
2022/08/10 00:11:09;;;;;;;0.00;0.00;;;21.60;64.90;;;;;;4978541;28;20345;-79
2022/08/10 00:13:35;;;;;;;0.00;0.00;;;21.60;64.90;;;;;;4965689;28;20301;-79
2022/08/10 00:16:01;;;;;;;0.00;0.00;;;21.60;65.20;;;;;;4976361;28;20030;-79
2022/08/10 00:18:26;;;;;;;0.00;0.00;;;21.60;65.10;;;;;;4980356;28;20619;-76
2022/08/10 00:20:53;;;;;;;0.00;0.00;;;21.60;65.20;;;;;;4976139;28;20324;-78
2022/08/10 00:23:18;;;;;;;0.00;0.00;;;21.50;65.00;;;;;;4981278;28;20022;-79
2022/08/10 00:25:44;;;;;;;0.00;0.00;;;21.50;65.20;;;;;;4982618;28;20023;-79
2022/08/10 00:28:10;;;;;;;0.00;0.00;;;21.50;65.20;;;;;;4983289;28;20026;-75
2022/08/10 00:30:36;;;;;;;0.00;0.00;;;21.50;65.20;;;;;;4976100;28;20465;-79
2022/08/10 00:33:02;;;;;;;0.00;0.00;;;21.50;65.40;;;;;;4994880;28;20029;-80
2022/08/10 00:35:28;;;;;;;0.00;0.00;;;21.50;65.90;;;;;;4981025;28;20023;-79
2022/08/10 00:37:53;;;;;;;0.00;0.00;;;21.50;65.30;;;;;;4978712;28;20046;-80
2022/08/10 00:40:19;;;;;;;0.00;0.00;;;21.40;65.30;;;;;;4989857;28;20025;-79
2022/08/10 00:42:45;;;;;;;0.00;0.00;;;21.40;65.40;;;;;;4992018;28;20026;-80
2022/08/10 00:45:11;;;;;;;0.00;0.00;;;21.40;65.60;;;;;;4979319;28;20248;-80
2022/08/10 00:47:36;;;;;;;0.00;0.00;;;21.40;65.80;;;;;;5004937;28;20477;-76
2022/08/10 00:50:06;;;;;;;0.00;0.00;;;21.40;65.90;;;;;;4978099;28;20098;-80
2022/08/10 00:52:34;;;;;;;0.00;0.00;;;21.40;66.00;;;;;;4984964;28;20069;-79
2022/08/10 00:55:01;;;;;;;0.00;0.00;;;21.40;65.90;;;;;;4981455;28;20018;-80
2022/08/10 00:57:27;;;;;;;0.00;0.00;;;21.30;66.00;;;;;;4988279;28;20019;-79
2022/08/10 00:59:54;;;;;;;0.00;0.00;;;21.30;65.90;;;;;;4961716;28;20023;-79
2022/08/10 01:02:20;;;;;;;0.00;0.00;;;21.30;66.10;;;;;;4969840;28;20104;-79
2022/08/10 01:04:46;;;;;;;0.00;0.00;;;21.30;66.50;;;;;;4987762;28;20046;-79
2022/08/10 01:07:48;;;;;;;0.00;0.00;;;21.30;66.70;;;;;;4968102;28;20029;-80
2022/08/10 01:10:25;;;;;;;0.00;0.00;;;21.20;67.00;;;;;;4977076;28;20278;-80
2022/08/10 01:13:25;;;;;;;0.00;0.00;;;21.20;66.50;;;;;;4989333;28;20022;-79
2022/08/10 01:16:23;;;;;;;0.00;0.00;;;21.10;67.00;;;;;;4978561;28;20060;-80
2022/08/10 01:19:10;;;;;;;0.00;0.00;;;21.10;67.40;;;;;;4966094;28;20104;-81
2022/08/10 01:22:02;;;;;;;0.00;0.00;;;21.00;67.20;;;;;;4966006;28;20534;-80
2022/08/10 01:24:53;;;;;;;0.00;0.00;;;21.00;67.40;;;;;;4984288;28;20066;-81
2022/08/10 01:27:54;;;;;;;0.00;0.00;;;21.00;67.60;;;;;;4978874;28;20018;-80
2022/08/10 01:30:23;;;;;;;0.00;0.00;;;21.00;67.40;;;;;;4979395;28;20034;-80
2022/08/10 01:33:01;;;;;;;0.00;0.00;;;21.10;67.70;;;;;;4991393;28;20019;-79
2022/08/10 01:35:45;;;;;;;0.00;0.00;;;21.00;67.50;;;;;;4982585;28;20033;-77
2022/08/10 01:38:18;;;;;;;0.00;0.00;;;21.00;67.50;;;;;;4983427;28;20018;-80
2022/08/10 01:40:54;;;;;;;0.00;0.00;;;21.10;67.60;;;;;;5005109;28;20018;-79
2022/08/10 01:43:20;;;;;;;0.00;0.00;;;21.00;67.50;;;;;;4994003;28;20027;-80
2022/08/10 01:45:51;;;;;;;0.00;0.00;;;20.90;67.90;;;;;;4980578;28;20065;-77
2022/08/10 01:48:30;;;;;;;0.00;0.00;;;21.00;67.90;;;;;;4992804;28;20096;-77
2022/08/10 01:51:10;;;;;;;0.00;0.00;;;21.00;67.60;;;;;;4986515;28;20145;-78
2022/08/10 01:53:45;;;;;;;0.00;0.00;;;21.00;67.70;;;;;;4983463;28;20125;-78
2022/08/10 01:56:14;;;;;;;0.00;0.00;;;20.90;67.80;;;;;;4977490;28;20027;-78
2022/08/10 01:58:41;;;;;;;;;;;20.90;68.00;;;;;;4980824;28;20042;-78
2022/08/10 02:01:09;;;;;;;0.00;0.00;;;20.90;67.80;;;;;;4989513;28;19910;-77
2022/08/10 02:03:36;;;;;;;0.00;0.00;;;20.90;67.70;;;;;;4990868;28;20033;-75
2022/08/10 02:06:06;;;;;;;0.00;0.00;;;20.90;67.80;;;;;;4998404;28;20042;-78
2022/08/10 02:08:33;;;;;;;0.00;0.00;;;20.90;67.80;;;;;;4997611;28;20269;-76
2022/08/10 02:11:00;;;;;;;0.00;0.00;;;20.90;68.10;;;;;;4975375;28;20054;-76
2022/08/10 02:13:27;;;;;;;0.00;0.00;;;20.90;68.00;;;;;;4961627;28;20019;-77
2022/08/10 02:15:55;;;;;;;0.00;0.00;;;20.80;67.70;;;;;;4985657;28;20262;-78
2022/08/10 02:18:22;;;;;;;0.00;0.00;;;20.80;68.10;;;;;;4980345;28;20023;-78
2022/08/10 02:20:50;;;;;;;0.00;0.00;;;20.80;68.10;;;;;;4976130;28;20022;-76
2022/08/10 02:23:28;;;;;;;0.00;0.00;;;20.80;68.30;;;;;;4980822;28;20338;-77
2022/08/10 02:25:57;;;;;;;0.00;0.00;;;20.80;68.30;;;;;;4977824;28;20049;-77
2022/08/10 02:28:26;;;;;;;0.00;0.00;;;20.80;68.30;;;;;;4981914;28;20066;-77
2022/08/10 02:30:54;;;;;;;0.00;0.00;;;20.80;68.20;;;;;;4986931;28;20064;-78
2022/08/10 02:33:22;;;;;;;0.00;0.00;;;20.70;67.90;;;;;;4987365;28;20023;-79
2022/08/10 02:35:50;;;;;;;0.00;0.00;;;20.70;68.20;;;;;;4977890;28;20262;-78
2022/08/10 02:38:18;;;;;;;;;;;20.70;68.30;;;;;;4965201;28;20027;-80
2022/08/10 02:40:49;;;;;;;0.00;0.00;;;20.70;68.30;;;;;;4976585;28;19910;-80
2022/08/10 02:43:27;;;;;;;0.00;0.00;;;20.60;68.70;;;;;;4998100;28;20031;-81
2022/08/10 02:46:00;;;;;;;0.00;0.00;;;20.60;69.00;;;;;;4987813;28;20039;-79
2022/08/10 02:48:39;;;;;;;0.00;0.00;;;21.50;69.30;;;;;;4977591;28;20049;-79
2022/08/10 02:51:13;;;;;;;0.00;0.00;;;20.50;68.60;;;;;;4995456;28;20718;-78
2022/08/10 02:53:55;;;;;;;0.00;0.00;;;20.50;69.40;;;;;;4977876;28;20022;-80
2022/08/10 02:56:45;;;;;;;0.00;0.00;;;20.50;69.40;;;;;;4984335;28;20321;-78
2022/08/10 02:59:20;;;;;;;0.00;0.00;;;20.50;69.60;;;;;;4976209;28;20026;-79
2022/08/10 03:01:49;;;;;;;0.00;0.00;;;20.50;69.80;;;;;;4979249;28;20160;-77
2022/08/10 03:04:34;;;;;;;0.00;0.00;;;20.50;69.60;;;;;;4982198;28;20061;-79
2022/08/10 03:07:04;;;;;;;0.00;0.00;;;20.50;70.10;;;;;;4975267;28;20039;-78
2022/08/10 03:09:32;;;;;;;0.00;0.00;;;20.50;69.50;;;;;;4978640;28;20034;-78
2022/08/10 03:12:00;;;;;;;0.00;0.00;;;20.50;69.70;;;;;;4978345;28;20218;-77
2022/08/10 03:14:29;;;;;;;0.00;0.00;;;20.50;70.00;;;;;;4977994;28;20014;-76
2022/08/10 03:16:55;;;;;;;;;;;20.40;69.80;;;;;;4979409;28;20113;-79
2022/08/10 03:19:23;;;;;;;0.00;0.00;;;20.40;70.00;;;;;;4967439;28;20692;-78
2022/08/10 03:21:51;;;;;;;0.00;0.00;;;20.40;69.90;;;;;;4984194;28;20027;-76
2022/08/10 03:24:21;;;;;;;0.00;0.00;;;20.40;69.70;;;;;;4964520;28;20015;-78
2022/08/10 03:26:48;;;;;;;0.00;0.00;;;20.40;70.20;;;;;;4978917;28;20038;-78
2022/08/10 03:29:15;;;;;;;0.00;0.00;;;20.40;70.10;;;;;;4977688;28;20030;-77
2022/08/10 03:31:41;;;;;;;0.00;0.00;;;20.40;70.40;;;;;;4979817;28;20046;-78
2022/08/10 03:34:07;;;;;;;0.00;0.00;;;20.40;70.10;;;;;;4979261;28;20046;-78
2022/08/10 03:36:32;;;;;;;0.00;0.00;;;20.40;69.80;;;;;;4993744;28;20077;-77
2022/08/10 03:38:58;;;;;;;0.00;0.00;;;20.40;70.30;;;;;;4977521;28;20037;-78
2022/08/10 03:41:35;;;;;;;0.00;0.00;;;20.40;70.20;;;;;;4982259;28;20073;-79
2022/08/10 03:44:03;;;;;;;0.00;0.00;;;20.40;70.10;;;;;;4985314;28;20422;-79
2022/08/10 03:46:32;;;;;;;0.00;0.00;;;20.30;70.10;;;;;;4976612;28;20018;-77
2022/08/10 03:49:01;;;;;;;0.00;0.00;;;20.30;70.40;;;;;;5002878;28;20387;-79
2022/08/10 03:51:28;;;;;;;0.00;0.00;;;20.30;70.10;;;;;;4975148;28;20019;-78
2022/08/10 03:53:55;;;;;;;0.00;0.00;;;20.30;70.10;;;;;;4994050;28;20030;-78
2022/08/10 03:56:22;;;;;;;0.00;0.00;;;20.30;70.20;;;;;;4975538;28;20286;-79
2022/08/10 03:58:47;;;;;;;0.00;0.00;;;20.30;70.30;;;;;;4979032;28;20205;-77
2022/08/10 04:01:14;;;;;;;0.00;0.00;;;20.30;70.30;;;;;;4981041;28;20026;-79
2022/08/10 04:03:40;;;;;;;0.00;0.00;;;20.30;70.00;;;;;;4997435;28;20357;-79
2022/08/10 04:06:07;;;;;;;0.00;0.00;;;20.30;70.40;;;;;;4979239;28;20023;-80
2022/08/10 04:08:32;;;;;;;0.00;0.00;;;20.30;70.50;;;;;;4986264;28;20027;-79
2022/08/10 04:10:58;;;;;;;0.00;0.00;;;20.30;70.30;;;;;;4981819;28;20164;-80
2022/08/10 04:13:24;;;;;;;0.00;0.00;;;20.30;70.10;;;;;;4986985;28;20237;-78
2022/08/10 04:15:49;;;;;;;0.00;0.00;;;20.30;70.30;;;;;;4983765;28;20037;-80
2022/08/10 04:18:15;;;;;;;0.00;0.00;;;20.30;70.10;;;;;;4985016;28;20049;-77
2022/08/10 04:20:51;;;;;;;0.00;0.00;;;20.40;70.10;;;;;;4981713;28;20026;-80
2022/08/10 04:23:21;;;;;;;0.00;0.00;;;20.30;70.40;;;;;;4985827;28;20253;-79
2022/08/10 04:25:48;;;;;;;0.00;0.00;;;20.40;70.30;;;;;;4981686;28;20031;-80
2022/08/10 04:28:14;;;;;;;0.00;0.00;;;20.40;70.20;;;;;;4982857;28;20022;-80
2022/08/10 04:30:42;;;;;;;0.00;0.00;;;20.40;70.10;;;;;;4985083;28;20089;-80
2022/08/10 04:33:12;;;;;;;0.00;0.00;;;20.30;70.20;;;;;;4978270;28;20202;-80
2022/08/10 04:35:38;;;;;;;0.00;0.00;;;20.30;70.40;;;;;;4982258;28;20065;-80
2022/08/10 04:38:05;;;;;;;0.00;0.00;;;20.30;70.40;;;;;;4966297;28;20026;-78
2022/08/10 04:40:31;;;;;;;0.00;0.00;;;20.30;70.40;;;;;;4982195;28;20019;-79
2022/08/10 04:42:59;;;;;;;0.00;0.00;;;20.30;70.40;;;;;;4963417;28;20058;-80
2022/08/10 04:45:25;;;;;;;0.00;0.00;;;20.20;70.60;;;;;;4984734;28;20359;-77
2022/08/10 04:47:51;;;;;;;0.00;0.00;;;20.20;71.00;;;;;;4983315;28;20058;-81
2022/08/10 04:50:16;;;;;;;0.00;0.00;;;20.20;71.40;;;;;;4982853;28;20070;-77
2022/08/10 04:52:42;;;;;;;0.00;0.00;;;20.20;71.30;;;;;;4983447;28;20041;-78
2022/08/10 04:55:08;;;;;;;0.00;0.00;;;20.20;71.00;;;;;;4978633;28;20025;-79
2022/08/10 04:57:33;;;;;;;0.00;0.00;;;20.30;71.00;;;;;;4983131;28;20042;-79
2022/08/10 04:59:59;;;;;;;0.00;0.00;;;20.30;71.50;;;;;;4984351;28;20018;-77
2022/08/10 05:02:25;;;;;;;0.00;0.00;;;20.40;71.70;;;;;;4978538;28;20302;-77
2022/08/10 05:04:50;;;;;;;0.00;0.00;;;20.40;71.60;;;;;;4983144;28;20090;-77
2022/08/10 05:07:16;;;;;;;0.00;0.00;;;20.40;71.50;;;;;;4981286;28;20034;-74
2022/08/10 05:09:42;;;;;;;0.00;0.00;;;20.40;71.30;;;;;;4980616;28;20057;-75
2022/08/10 05:12:08;;;;;;;0.00;0.00;;;20.40;70.90;;;;;;4980610;28;20026;-78
2022/08/10 05:14:34;;;;;;;0.00;0.00;;;20.40;71.20;;;;;;4986632;28;20026;-79
2022/08/10 05:16:59;;;;;;;0.00;0.00;;;20.40;71.20;;;;;;4977657;28;20074;-78
2022/08/10 05:19:25;;;;;;;0.00;0.00;;;20.40;71.40;;;;;;4981404;28;20217;-82
2022/08/10 05:21:51;;;;;;;0.00;0.00;;;20.40;71.40;;;;;;4988782;28;20026;-80
2022/08/10 05:24:17;;;;;;;0.00;0.00;;;20.50;71.50;;;;;;4985800;28;20030;-80
2022/08/10 05:26:43;;;;;;;0.00;0.00;;;20.50;71.70;;;;;;5001923;28;20432;-77
2022/08/10 05:29:08;;;;;;;0.00;0.00;;;20.50;71.20;;;;;;4989440;28;20029;-83
2022/08/10 05:31:34;;;;;;;0.00;0.00;;;20.60;71.60;;;;;;4982794;28;20018;-84
2022/08/10 05:34:00;;;;;;;0.00;0.00;;;20.60;71.70;;;;;;4991522;28;20017;-80
2022/08/10 05:36:26;;;;;;;0.00;0.00;;;20.60;71.60;;;;;;4967575;28;20101;-84
2022/08/10 05:38:53;;;;;;;0.00;0.00;;;20.70;71.10;;;;;;4985515;28;20244;-83
2022/08/10 05:41:19;;;;;;;0.00;0.00;;;20.70;71.00;;;;;;4978956;28;20289;-81
2022/08/10 05:43:46;;;;;;;0.00;0.00;;;20.70;70.90;;;;;;4983123;28;20023;-83
2022/08/10 05:46:11;;;;;;;0.00;0.00;;;20.70;70.00;;;;;;4991279;28;20027;-85
2022/08/10 05:48:38;;;;;;;0.00;0.00;;;20.80;70.60;;;;;;4985471;28;20039;-82
2022/08/10 05:51:04;;;;;;;0.00;0.00;;;20.80;70.10;;;;;;4984926;28;20019;-84
2022/08/10 05:53:32;;;;;;;0.00;0.00;;;20.90;70.70;;;;;;4980549;28;20089;-86
2022/08/10 05:55:58;;;;;;;0.00;0.00;;;20.90;70.70;;;;;;4985502;28;20061;-84
2022/08/10 05:58:24;;;;;;;0.00;0.00;;;20.90;70.60;;;;;;4981145;28;20026;-84
2022/08/10 06:00:54;;;;;;;0.00;0.00;;;21.00;70.40;;;;;;4962811;28;20233;-84
2022/08/10 06:03:43;;;;;;;0.00;0.00;;;21.00;70.30;;;;;;4982680;28;20010;-82
2022/08/10 06:06:11;;;;;;;0.00;0.00;;;21.10;70.40;;;;;;4981839;28;20694;-82
2022/08/10 06:08:39;;;;;;;0.00;0.00;;;21.10;70.20;;;;;;4981424;28;20034;-77
2022/08/10 06:11:06;;;;;;;0.00;0.00;;;21.20;70.00;;;;;;4982744;28;20038;-81
2022/08/10 06:16:23;;;;;;;0.00;0.00;;;21.30;70.20;;;;;;4983068;28;20257;-78
2022/08/10 06:18:50;;;;;;;0.00;0.00;;;21.30;70.10;;;;;;4995157;28;20034;-82
2022/08/10 06:21:17;;;;;;;0.00;0.00;;;21.50;69.80;;;;;;4984498;28;20332;-82
2022/08/10 06:23:43;;;;;;;0.00;0.00;;;22.10;69.10;;;;;;4996887;28;20053;-81
2022/08/10 06:26:09;;;;;;;0.00;0.00;;;22.10;68.60;;;;;;4980272;28;20019;-78
2022/08/10 06:28:39;;;;;;;0.00;0.00;;;22.90;67.90;;;;;;4977050;28;20033;-76
2022/08/10 06:31:06;;;;;;;0.00;0.00;;;23.80;66.10;;;;;;4979316;28;20417;-76
2022/08/10 06:33:36;;;;;;;0.00;0.00;;;24.80;63.00;;;;;;4984579;28;20065;-77
2022/08/10 06:36:04;;;;;;;0.00;0.00;;;25.60;61.20;;;;;;4995502;28;20109;-76
2022/08/10 06:38:32;;;;;;;0.00;0.00;;;26.20;58.80;;;;;;4980424;28;20054;-75
2022/08/10 06:41:02;;;;;;;0.00;0.00;;;26.80;58.70;;;;;;4977633;28;20027;-74
2022/08/10 06:43:32;;;;;;;0.00;0.00;;;27.30;57.00;;;;;;4981817;28;20066;-75
2022/08/10 06:46:07;;;;;;;0.00;0.00;;;27.60;56.30;;;;;;4980296;28;20102;-75
2022/08/10 06:48:37;;;;;;;0.00;0.00;;;27.80;55.10;;;;;;4993476;28;20351;-76
2022/08/10 06:51:14;;;;;;;0.00;0.00;;;28.10;55.00;;;;;;4990047;28;20018;-75
2022/08/10 06:53:46;;;;;;;0.00;0.00;;;28.70;55.00;;;;;;4983263;28;20027;-76
2022/08/10 06:56:17;;;;;;;0.00;0.00;;;29.10;53.40;;;;;;4989038;28;20023;-77
2022/08/10 06:58:55;;;;;;;0.00;0.00;;;29.80;53.30;;;;;;4985063;28;20021;-76
2022/08/10 07:01:26;;;;;;;0.00;0.00;;;30.40;51.60;;;;;;4969516;28;20034;-75
2022/08/10 07:04:26;;;;;;;0.00;0.00;;;30.50;50.80;;;;;;4983458;28;20392;-75
2022/08/10 07:06:53;;;;;;;0.00;0.00;;;30.20;50.80;;;;;;4960006;28;20317;-75
2022/08/10 07:09:20;;;;;;;0.00;0.00;;;29.40;51.10;;;;;;5002250;28;20046;-75
2022/08/10 07:11:48;;;;;;;0.00;0.00;;;28.50;51.70;;;;;;4990099;28;20438;-77
2022/08/10 07:14:16;;;;;;;0.00;0.00;;;27.70;53.10;;;;;;4986852;28;20129;-74
2022/08/10 07:16:44;;;;;;;0.00;0.00;;;26.90;54.90;;;;;;4975884;28;20035;-75
2022/08/10 07:19:11;;;;;;;0.00;0.00;;;26.50;55.10;;;;;;4966444;28;20089;-75
2022/08/10 07:21:40;;;;;;;0.00;0.00;;;26.00;56.80;;;;;;4984521;28;20022;-75
2022/08/10 07:24:09;;;;;;;0.00;0.00;;;25.80;57.70;;;;;;4987627;28;20261;-74
2022/08/10 07:26:38;;;;;;;0.00;0.00;;;25.40;58.00;;;;;;4990801;28;20030;-75
2022/08/10 07:29:05;;;;;;;0.00;0.00;;;25.10;59.00;;;;;;4978494;28;20053;-76
2022/08/10 07:31:31;;;;;;;0.00;0.00;;;25.00;58.50;;;;;;4988026;28;20312;-75
2022/08/10 07:33:58;;;;;;;0.00;0.00;;;24.70;59.80;;;;;;4984584;28;20019;-75
2022/08/10 07:36:26;;;;;;;0.00;0.00;;;24.60;61.00;;;;;;4982591;28;20045;-75
2022/08/10 07:38:54;;;;;;;0.00;0.00;;;24.50;60.90;;;;;;4988948;28;20046;-74
2022/08/10 07:41:23;;;;;;;0.00;0.00;;;24.40;60.30;;;;;;4986818;28;20069;-75
2022/08/10 07:43:51;;;;;;;0.00;0.00;;;24.30;61.50;;;;;;4988646;28;20281;-74
2022/08/10 07:46:18;;;;;;;0.00;0.00;;;24.30;60.90;;;;;;4985502;28;20037;-75
2022/08/10 07:48:49;;;;;;;0.00;0.00;;;24.30;61.70;;;;;;4974900;28;20146;-74
2022/08/10 07:51:18;;;;;;;0.00;0.00;;;24.20;61.60;;;;;;4986217;28;20030;-75
2022/08/10 07:53:49;;;;;;;0.00;0.00;;;24.20;61.80;;;;;;4971164;28;20019;-74
2022/08/10 07:56:17;;;;;;;0.00;0.00;;;24.20;62.30;;;;;;4986749;28;20395;-74
2022/08/10 07:58:54;;;;;;;0.00;0.00;;;24.30;62.20;;;;;;4980376;28;20064;-74
2022/08/10 08:01:25;;;;;;;0.00;0.00;;;24.20;62.40;;;;;;4976820;28;20101;-76
2022/08/10 08:03:52;;;;;;;0.00;0.00;;;24.30;62.30;;;;;;4988984;28;20022;-74
2022/08/10 08:06:18;;;;;;;0.00;0.00;;;24.30;61.90;;;;;;4978325;28;20029;-75
2022/08/10 08:08:45;;;;;;;0.00;0.00;;;24.30;62.20;;;;;;4983284;28;20347;-74
2022/08/10 08:11:13;;;;;;;0.00;0.00;;;24.30;62.40;;;;;;4963611;28;20302;-75
2022/08/10 08:13:39;;;;;;;0.00;0.00;;;24.30;62.40;;;;;;4985334;28;20030;-75
2022/08/10 08:16:06;;;;;;;0.00;0.00;;;24.30;63.20;;;;;;4987959;28;20043;-74
2022/08/10 08:18:35;;;;;;;0.00;0.00;;;24.30;62.40;;;;;;5004240;28;20030;-74
2022/08/10 08:21:02;;;;;;;0.00;0.00;;;24.30;62.40;;;;;;4988335;28;20213;-75
2022/08/10 08:23:28;;;;;;;0.00;0.00;;;24.30;62.60;;;;;;4978706;28;20022;-75
2022/08/10 08:25:56;;;;;;;0.00;0.00;;;24.30;62.70;;;;;;4980461;28;20313;-75
2022/08/10 08:28:23;;;;;;;0.00;0.00;;;24.40;62.50;;;;;;4965401;28;20026;-74
2022/08/10 08:30:50;;;;;;;0.00;0.00;;;24.40;62.30;;;;;;4985119;28;20027;-75
2022/08/10 08:33:17;;;;;;;0.00;0.00;;;24.50;61.60;;;;;;4995149;28;20018;-75
2022/08/10 08:35:44;;;;;;;0.00;0.00;;;24.50;61.90;;;;;;5003591;28;20027;-76
2022/08/10 08:38:11;;;;;;;0.00;0.00;;;24.50;61.70;;;;;;4986306;28;20035;-75
2022/08/10 08:40:40;;;;;;;0.00;0.00;;;24.60;61.10;;;;;;4991712;28;20022;-74
2022/08/10 08:43:20;;;;;;;0.00;0.00;;;24.60;60.70;;;;;;4988917;28;20061;-74
2022/08/10 08:46:17;;;;;;;0.00;0.00;;;24.70;60.30;;;;;;4991302;28;20231;-80
2022/08/10 08:49:14;;;;;;;0.00;0.00;;;24.70;57.50;;;;;;4979302;28;20053;-78
2022/08/10 08:52:08;;;;;;;0.00;0.00;;;24.90;59.00;;;;;;4982347;28;20065;-75
2022/08/10 08:54:58;;;;;;;0.00;0.00;;;25.40;59.00;;;;;;4986869;28;20018;-75
2022/08/10 08:57:39;;;;;;;0.00;0.00;;;26.30;56.00;;;;;;4991387;28;20030;-74
2022/08/10 09:00:13;;;;;;;0.00;0.00;;;27.30;53.30;;;;;;4983304;28;20018;-75
2022/08/10 09:03:17;;;;;;;0.00;0.00;;;28.70;51.50;;;;;;4981311;28;20364;-74
2022/08/10 09:06:01;;;;;;;0.00;0.00;;;30.50;49.80;;;;;;4982183;28;20022;-77
2022/08/10 09:08:32;;;;;;;0.00;0.00;;;32.70;47.90;;;;;;4995057;28;20030;-77
2022/08/10 09:11:48;;;;;;;0.00;0.00;;;34.70;45.60;;;;;;4988352;28;20034;-78
2022/08/10 09:14:52;;;;;;;0.00;0.00;;;36.10;42.40;;;;;;4965479;28;20031;-77
2022/08/10 09:17:52;;;;;;;0.00;0.00;;;36.50;40.80;;;;;;4982882;28;20026;-73
2022/08/10 09:20:32;;;;;;;0.00;0.00;;;38.20;40.50;;;;;;4969045;28;20023;-75
2022/08/10 09:23:23;;;;;;;0.00;0.00;;;39.10;39.30;;;;;;4999017;28;20030;-74
2022/08/10 09:26:16;;;;;;;0.00;0.00;;;39.40;38.50;;;;;;4988696;28;20050;-77
2022/08/10 09:28:42;;;;;;;0.00;0.00;;;40.30;38.50;;;;;;4981222;28;20313;-75
2022/08/10 09:31:10;;;;;;;0.00;0.00;;;41.00;36.90;;;;;;4987665;28;20026;-75
2022/08/10 09:33:58;;;;;;;0.00;0.00;;;41.30;36.40;;;;;;5004336;28;20046;-78
2022/08/10 09:36:36;;;;;;;0.00;0.00;;;41.40;36.30;;;;;;4979137;28;20034;-76
2022/08/10 09:39:11;;;;;;;0.00;0.00;;;41.90;35.90;;;;;;4978820;28;20201;-74
2022/08/10 09:42:23;;;;;;;0.00;0.00;;;41.70;35.00;;;;;;4982677;28;20029;-77
2022/08/10 09:45:04;;;;;;;0.00;0.00;;;41.80;35.40;;;;;;4981935;28;20271;-79
2022/08/10 09:47:46;;;;;;;0.00;0.00;;;41.20;34.20;;;;;;4988978;28;20096;-78
2022/08/10 09:50:29;;;;;;;0.00;0.00;;;40.90;34.80;;;;;;4978053;28;20019;-75
2022/08/10 09:53:15;;;;;;;0.00;0.00;;;41.10;35.20;;;;;;4986713;28;20030;-74
2022/08/10 09:55:54;;;;;;;0.00;0.00;;;42.20;34.70;;;;;;4964952;28;20030;-73
2022/08/10 09:58:41;;;;;;;0.00;0.00;;;42.50;34.20;;;;;;4988910;28;20025;-74
2022/08/10 10:01:26;;;;;;;0.00;0.00;;;42.80;33.60;;;;;;4981507;28;20029;-75
2022/08/10 10:04:15;;;;;;;0.00;0.00;;;43.50;34.00;;;;;;4980603;28;20054;-75
2022/08/10 10:06:47;;;;;;;0.00;0.00;;;44.10;35.10;;;;;;4971020;28;20035;-75
2022/08/10 10:09:21;;;;;;;0.00;0.00;;;44.10;33.10;;;;;;4988514;28;20033;-76
2022/08/10 10:12:09;;;;;;;0.00;0.00;;;44.70;32.60;;;;;;4986434;28;20284;-75
2022/08/10 10:18:01;;;;;;;0.00;0.00;;;44.20;32.30;;;;;;4980319;28;20021;-74
2022/08/10 10:20:58;;;;;;;0.00;0.00;;;44.00;32.90;;;;;;4993625;28;20121;-75
2022/08/10 10:23:56;;;;;;;0.00;0.00;;;43.70;32.50;;;;;;4988675;28;20062;-74
2022/08/10 10:26:52;;;;;;;0.00;0.00;;;44.00;32.50;;;;;;4984429;28;20077;-75
2022/08/10 10:29:21;;;;;;;0.00;0.00;;;44.10;31.80;;;;;;4981884;28;20284;-75
2022/08/10 10:31:52;;;;;;;0.00;0.00;;;44.50;31.70;;;;;;4979364;28;20018;-75
2022/08/10 10:34:29;;;;;;;0.00;0.00;;;45.00;32.10;;;;;;4990597;28;20022;-75
2022/08/10 10:36:57;;;;;;;0.00;0.00;;;45.50;31.00;;;;;;4984778;28;20026;-74
2022/08/10 10:39:24;;;;;;;0.00;0.00;;;44.40;31.20;;;;;;4977392;28;20042;-76
2022/08/10 10:42:20;;;;;;;0.00;0.00;;;44.80;31.40;;;;;;4990752;28;20179;-75
2022/08/10 10:45:05;;;;;;;0.00;0.00;;;44.80;31.70;;;;;;4979943;28;20547;-75
2022/08/10 10:47:55;;;;;;;0.00;0.00;;;44.60;31.70;;;;;;4988360;28;20031;-75
2022/08/10 10:50:30;;;;;;;0.00;0.00;;;44.90;30.90;;;;;;4990534;28;20015;-75
2022/08/10 10:53:18;;;;;;;0.00;0.00;;;44.80;30.40;;;;;;4988452;28;20027;-74
2022/08/10 10:55:43;;;;;;;0.00;0.00;;;44.10;30.40;;;;;;4976601;28;20329;-75
2022/08/10 10:58:24;;;;;;;0.00;0.00;;;44.10;30.40;;;;;;4982815;28;20018;-73
2022/08/10 11:00:55;;;;;;;0.00;0.00;;;44.80;31.80;;;;;;4984372;28;20027;-76
2022/08/10 11:03:46;;;;;;;0.00;0.00;;;45.50;30.40;;;;;;4982466;28;20074;-76
2022/08/10 11:06:37;;;;;;;0.00;0.00;;;45.90;30.40;;;;;;4992065;28;20094;-75
2022/08/10 11:09:10;;;;;;;0.00;0.00;;;44.60;30.80;;;;;;4984323;28;20023;-75
2022/08/10 11:11:39;;;;;;;0.00;0.00;;;44.70;30.90;;;;;;4999145;28;20054;-74
2022/08/10 11:14:35;;;;;;;0.00;0.00;;;43.80;31.40;;;;;;4959393;28;20030;-75
2022/08/10 11:17:03;;;;;;;0.00;0.00;;;44.10;30.70;;;;;;4966117;28;20038;-75
2022/08/10 11:19:58;;;;;;;0.00;0.00;;;44.00;30.90;;;;;;4975040;28;20026;-74
2022/08/10 11:22:44;;;;;;;0.00;0.00;;;43.60;30.70;;;;;;4969712;28;20042;-74
2022/08/10 11:25:12;;;;;;;0.00;0.00;;;44.30;30.80;;;;;;4970479;28;20034;-75
2022/08/10 11:27:38;;;;;;;0.00;0.00;;;44.40;30.70;;;;;;4965401;28;20127;-75
2022/08/10 11:30:07;;;;;;;0.00;0.00;;;44.10;30.00;;;;;;4962799;28;20047;-75
2022/08/10 11:32:54;;;;;;;0.00;0.00;;;43.70;30.10;;;;;;4966035;28;20046;-78
2022/08/10 11:35:34;;;;;;;0.00;0.00;;;43.20;30.30;;;;;;4970429;28;20053;-76
2022/08/10 11:38:22;;;;;;;0.00;0.00;;;41.40;31.20;;;;;;4973126;28;20055;-75
2022/08/10 11:41:29;;;;;;;0.00;0.00;;;40.50;32.20;;;;;;4965103;28;20113;-75
2022/08/10 11:44:10;;;;;;;0.00;0.00;;;39.60;33.00;;;;;;4962017;28;20102;-76
2022/08/10 11:46:52;;;;;;;0.00;0.00;;;39.20;32.50;;;;;;4971545;28;20461;-76
2022/08/10 11:49:49;;;;;;;0.00;0.00;;;39.30;32.20;;;;;;4962765;28;20027;-76
2022/08/10 11:52:21;;;;;;;0.00;0.00;;;39.60;32.00;;;;;;4965351;28;20048;-75
2022/08/10 11:54:53;;;;;;;0.00;0.00;;;39.70;32.40;;;;;;4965162;28;20023;-75
2022/08/10 11:57:20;;;;;;;0.00;0.00;;;40.40;32.00;;;;;;4967991;28;20030;-75
2022/08/10 11:59:58;;;;;;;0.00;0.00;;;39.50;31.80;;;;;;4966277;28;20408;-74
2022/08/10 12:02:39;;;;;;;0.00;0.00;;;39.40;32.10;;;;;;4966992;28;20011;-75
2022/08/10 12:05:10;;;;;;;0.00;0.00;;;38.50;32.80;;;;;;4966761;28;20159;-76
2022/08/10 12:07:41;;;;;;;0.00;0.00;;;37.50;33.80;;;;;;4990743;28;20023;-75
2022/08/10 12:10:08;;;;;;;0.00;0.00;;;36.50;33.60;;;;;;4973119;28;20062;-75
2022/08/10 12:12:42;;;;;;;0.00;0.00;;;35.90;34.70;;;;;;4979094;28;20039;-75
2022/08/10 12:15:14;;;;;;;0.00;0.00;;;35.20;35.10;;;;;;4987437;28;20022;-78
2022/08/10 12:17:48;;;;;;;0.00;0.00;;;34.40;35.50;;;;;;4978965;28;20034;-76
2022/08/10 12:20:27;;;;;;;0.00;0.00;;;33.90;35.50;;;;;;4982280;28;20026;-77
2022/08/10 12:22:57;;;;;;;0.00;0.00;;;33.40;35.90;;;;;;4982098;28;20205;-74
2022/08/10 12:25:42;;;;;;;0.00;0.00;;;32.90;36.90;;;;;;4995885;28;20054;-76
2022/08/10 12:28:35;;;;;;;0.00;0.00;;;32.70;37.30;;;;;;4980411;28;20030;-74
2022/08/10 12:31:06;;;;;;;0.00;0.00;;;32.40;37.90;;;;;;4979086;28;20128;-75
2022/08/10 12:33:39;;;;;;;0.00;0.00;;;32.10;38.30;;;;;;4979417;28;20070;-74
2022/08/10 12:36:14;;;;;;;0.00;0.00;;;31.80;38.30;;;;;;4984023;28;20050;-75
2022/08/10 12:38:58;;;;;;;0.00;0.00;;;31.50;38.70;;;;;;4983111;28;20087;-76
2022/08/10 12:41:38;;;;;;;0.00;0.00;;;31.30;40.00;;;;;;4992658;28;20032;-76
2022/08/10 12:44:45;;;;;;;0.00;0.00;;;31.10;41.00;;;;;;4991282;28;20023;-74
2022/08/10 12:47:37;;;;;;;0.00;0.00;;;31.00;39.90;;;;;;4961118;28;20164;-74
2022/08/10 12:50:09;;;;;;;0.00;0.00;;;30.90;40.10;;;;;;4987530;28;20038;-74
2022/08/10 12:53:02;;;;;;;0.00;0.00;;;30.80;40.00;;;;;;4989078;28;20030;-74
2022/08/10 12:55:30;;;;;;;0.00;0.00;;;30.90;40.30;;;;;;4984874;28;20034;-74
2022/08/10 12:57:57;;;;;;;0.00;0.00;;;30.70;39.90;;;;;;4964291;28;20089;-74
2022/08/10 13:00:30;;;;;;;0.00;0.00;;;30.60;39.70;;;;;;4991936;28;20022;-73
2022/08/10 13:02:58;;;;;;;0.00;0.00;;;30.70;41.30;;;;;;4979864;28;20018;-74
2022/08/10 13:05:25;;;;;;;0.00;0.00;;;30.60;41.40;;;;;;4991511;28;20104;-74
2022/08/10 13:09:07;;;;;;;0.00;0.00;;;30.60;41.80;;;;;;4992213;28;20033;-74
2022/08/10 13:10:48;;;;;;;0.00;0.00;;;30.60;42.00;;;;;;4981886;28;20117;-74
2022/08/10 13:13:18;;;;;;;0.00;0.00;;;30.60;41.10;;;;;;4977759;28;20107;-75
2022/08/10 13:15:47;;;;;;;0.00;0.00;;;30.50;41.60;;;;;;4990047;28;20023;-74
2022/08/10 13:18:17;;;;;;;0.00;0.00;;;30.50;42.10;;;;;;4989055;28;20256;-73
2022/08/10 13:20:44;;;;;;;0.00;0.00;;;30.60;41.90;;;;;;4964642;28;20047;-75
2022/08/10 13:23:14;;;;;;;0.00;0.00;;;30.60;41.70;;;;;;4983116;28;20301;-75
2022/08/10 13:25:46;;;;;;;0.00;0.00;;;30.70;41.50;;;;;;4979267;28;20203;-78